Аэропорт: Жезказган. Жезказган

ICAO: UAKD

METAR:
2018/05/20 15:00
UAKD 201500Z 14004MPS CAVOK 19/M07 Q1024 R22/0///65 NOSIG RMK QFE734/0979
METAR:
2017/04/10 09:39
TAF TAF UAKD 101100Z 1009/1021 16012MPS 9999 SCT100